Time;durP1;ratioP1;P1;durP2;ratioP2;P2;SDS_P1;SDS_P2;PMS_P1;PMS_P2;Temp;Humidity;BMP_temperature;BMP_pressure;BME280_temperature;BME280_humidity;BME280_pressure;Samples;Min_cycle;Max_cycle;Signal;HPM_P1;HPM_P2
2023/07/16 00:00:00;;;;;;;1999.90;999.90;;;;;;;21.20;100.00;97754.50;5091456;28;20032;-77
2023/07/16 00:02:25;;;;;;;1999.90;999.90;;;;;;;21.08;100.00;97751.84;5091567;28;20039;-79
2023/07/16 00:04:51;;;;;;;1999.90;999.90;;;;;;;21.19;100.00;97768.78;5092089;28;20533;-80
2023/07/16 00:07:17;;;;;;;1999.90;999.90;;;;;;;21.08;100.00;97765.75;5091306;28;20386;-81
2023/07/16 00:09:42;;;;;;;1999.90;999.90;;;;;;;21.04;100.00;97756.56;5090575;28;20020;-81
2023/07/16 00:12:08;;;;;;;1999.90;999.90;;;;;;;21.05;100.00;97752.59;5092191;28;20084;-80
2023/07/16 00:14:33;;;;;;;1999.90;999.90;;;;;;;21.09;100.00;97756.28;5091658;28;20392;-77
2023/07/16 00:16:59;;;;;;;1999.90;999.90;;;;;;;21.12;100.00;97763.88;5093224;28;20035;-79
2023/07/16 00:19:24;;;;;;;1999.90;999.90;;;;;;;21.02;100.00;97749.75;5091392;28;20482;-80
2023/07/16 00:21:49;;;;;;;1999.90;999.90;;;;;;;21.05;100.00;97758.16;5088743;28;20433;-77
2023/07/16 00:24:15;;;;;;;1999.90;999.90;;;;;;;21.03;100.00;97757.72;5090710;28;20031;-81
2023/07/16 00:26:40;;;;;;;1999.90;999.90;;;;;;;21.00;100.00;97746.53;5091293;28;20028;-80
2023/07/16 00:29:05;;;;;;;1999.90;999.90;;;;;;;20.89;100.00;97751.91;5091992;28;20048;-75
2023/07/16 00:31:31;;;;;;;1999.90;999.90;;;;;;;20.96;100.00;97760.38;5092721;28;20028;-78
2023/07/16 00:33:56;;;;;;;1999.90;999.90;;;;;;;20.81;100.00;97752.91;5091264;28;20365;-79
2023/07/16 00:36:21;;;;;;;1999.90;999.90;;;;;;;20.77;100.00;97754.81;5092741;28;20056;-81
2023/07/16 00:38:47;;;;;;;1999.90;999.90;;;;;;;20.73;100.00;97756.75;5092541;28;20031;-78
2023/07/16 00:41:14;;;;;;;1999.90;999.90;;;;;;;20.75;100.00;97759.94;5092678;28;20031;-82
2023/07/16 00:43:39;;;;;;;1999.90;999.90;;;;;;;20.75;100.00;97746.84;5092257;28;20028;-79
2023/07/16 00:46:05;;;;;;;1999.90;999.90;;;;;;;20.78;100.00;97753.66;5092454;28;20035;-79
2023/07/16 00:48:31;;;;;;;1999.90;999.90;;;;;;;20.72;100.00;97744.81;5092852;28;20059;-83
2023/07/16 00:50:56;;;;;;;1999.90;999.90;;;;;;;20.77;100.00;97752.03;5100097;28;20035;-83
2023/07/16 00:53:22;;;;;;;1999.90;999.90;;;;;;;20.81;100.00;97747.34;5094840;28;20060;-81
2023/07/16 00:55:48;;;;;;;1999.90;999.90;;;;;;;20.85;100.00;97737.13;5093952;28;20059;-79
2023/07/16 00:58:13;;;;;;;1999.90;999.90;;;;;;;20.81;100.00;97739.00;5093584;28;20075;-80
2023/07/16 01:00:40;;;;;;;1999.90;999.90;;;;;;;20.86;100.00;97733.19;5093786;28;20024;-81
2023/07/16 01:03:08;;;;;;;1999.90;999.90;;;;;;;20.90;100.00;97734.03;5093591;28;20109;-82
2023/07/16 01:06:06;;;;;;;1999.90;999.90;;;;;;;21.00;100.00;97738.19;5092972;28;20019;-82
2023/07/16 01:08:42;;;;;;;1999.90;999.90;;;;;;;20.99;100.00;97742.94;5092761;28;20027;-77
2023/07/16 01:11:09;;;;;;;1999.90;999.90;;;;;;;20.99;100.00;97737.38;5092208;28;20020;-80
2023/07/16 01:13:35;;;;;;;1999.90;999.90;;;;;;;20.97;100.00;97739.72;5092123;28;20054;-78
2023/07/16 01:16:01;;;;;;;1999.90;999.90;;;;;;;20.94;100.00;97732.13;5092765;28;20024;-76
2023/07/16 01:18:27;;;;;;;1999.90;999.90;;;;;;;20.91;100.00;97730.09;5092212;28;20077;-82
2023/07/16 01:20:52;;;;;;;1999.90;999.90;;;;;;;20.94;100.00;97721.00;5093338;28;20036;-82
2023/07/16 01:23:26;;;;;;;1999.90;999.90;;;;;;;20.94;100.00;97732.13;5098982;28;20100;-84
2023/07/16 01:25:57;;;;;;;1999.90;999.90;;;;;;;20.88;100.00;97721.66;5092921;28;20043;-80
2023/07/16 01:28:44;;;;;;;1999.90;999.90;;;;;;;20.82;100.00;97721.16;5085369;28;20047;-79
2023/07/16 01:31:11;;;;;;;1999.90;999.90;;;;;;;20.77;100.00;97718.66;5079674;28;20083;-78
2023/07/16 01:33:40;;;;;;;1999.90;999.90;;;;;;;20.70;100.00;97719.38;5090411;28;20530;-79
2023/07/16 01:36:08;;;;;;;1999.90;999.90;;;;;;;20.73;100.00;97712.25;5088528;28;20027;-78
2023/07/16 01:38:35;;;;;;;1999.90;999.90;;;;;;;20.73;100.00;97715.84;5091343;28;20024;-78
2023/07/16 01:41:01;;;;;;;1999.90;999.90;;;;;;;20.70;100.00;97718.56;5091368;28;20051;-81
2023/07/16 01:43:27;;;;;;;1999.90;999.90;;;;;;;20.64;100.00;97715.25;5091508;28;20028;-79
2023/07/16 01:45:52;;;;;;;1999.90;999.90;;;;;;;20.62;100.00;97709.25;5091758;28;20089;-80
2023/07/16 01:48:35;;;;;;;1999.90;999.90;;;;;;;20.63;100.00;97704.50;5091559;28;20442;-81
2023/07/16 01:51:01;;;;;;;1999.90;999.90;;;;;;;20.62;100.00;97695.34;5090881;28;20423;-78
2023/07/16 01:53:27;;;;;;;1999.90;999.90;;;;;;;20.59;100.00;97700.84;5091390;28;20090;-79
2023/07/16 01:55:52;;;;;;;1999.90;999.90;;;;;;;20.54;100.00;97698.38;5091965;28;20028;-77
2023/07/16 01:58:17;;;;;;;1999.90;999.90;;;;;;;20.48;100.00;97686.75;5091748;28;20464;-79
2023/07/16 02:00:43;;;;;;;1999.90;999.90;;;;;;;20.51;100.00;97685.22;5093698;28;20028;-76
2023/07/16 02:03:08;;;;;;;1999.90;999.90;;;;;;;20.47;100.00;97687.09;5095991;28;20038;-82
2023/07/16 02:05:34;;;;;;;1999.90;999.90;;;;;;;20.41;100.00;97675.47;5093299;28;20020;-82
2023/07/16 02:07:59;;;;;;;1999.90;999.90;;;;;;;20.51;100.00;97690.75;5092015;28;20492;-82
2023/07/16 02:10:25;;;;;;;1999.90;999.90;;;;;;;20.53;100.00;97680.06;5093597;28;20434;-85
2023/07/16 02:12:50;;;;;;;1999.90;999.90;;;;;;;20.49;100.00;97687.53;5094776;28;20032;-83
2023/07/16 02:15:15;;;;;;;1999.90;999.90;;;;;;;20.26;100.00;97663.28;5095444;28;20035;-84
2023/07/16 02:17:41;;;;;;;1999.90;999.90;;;;;;;20.43;100.00;97686.22;5095527;28;20020;-83
2023/07/16 02:20:07;;;;;;;1999.90;999.90;;;;;;;20.38;100.00;97684.56;5097577;28;20032;-83
2023/07/16 02:22:35;;;;;;;1999.90;999.90;;;;;;;20.40;100.00;97698.06;5095843;28;20106;-85
2023/07/16 02:25:00;;;;;;;1999.90;999.90;;;;;;;20.36;100.00;97686.88;5098178;28;20016;-84
2023/07/16 02:27:26;;;;;;;1999.90;999.90;;;;;;;20.24;100.00;97678.66;5099813;28;20092;-82
2023/07/16 02:29:51;;;;;;;1999.90;999.90;;;;;;;20.16;100.00;97676.91;5091699;28;20047;-86
2023/07/16 02:32:16;;;;;;;1999.90;999.90;;;;;;;20.28;100.00;97691.50;5087050;28;20582;-82
2023/07/16 02:34:42;;;;;;;1999.90;999.90;;;;;;;20.19;100.00;97685.31;5101490;28;20024;-88
2023/07/16 02:37:07;;;;;;;1999.90;999.90;;;;;;;20.24;100.00;97676.69;5103708;28;20024;-80
2023/07/16 02:39:34;;;;;;;1999.90;999.90;;;;;;;20.26;100.00;97699.41;5098212;28;20028;-81
2023/07/16 02:41:59;;;;;;;1999.90;999.90;;;;;;;20.26;100.00;97688.28;5098252;28;20068;-81
2023/07/16 02:44:24;;;;;;;1999.90;999.90;;;;;;;20.23;100.00;97694.53;5096608;28;20024;-81
2023/07/16 02:46:50;;;;;;;1999.90;999.90;;;;;;;20.18;100.00;97691.22;5097201;28;20024;-78
2023/07/16 02:49:16;;;;;;;1999.90;999.90;;;;;;;20.21;100.00;97694.09;5098348;28;20372;-83
2023/07/16 02:51:41;;;;;;;1999.90;999.90;;;;;;;20.16;100.00;97694.38;5098019;28;20024;-80
2023/07/16 02:54:07;;;;;;;1999.90;999.90;;;;;;;20.17;100.00;97698.75;5094916;28;20123;-80
2023/07/16 02:56:32;;;;;;;1999.90;999.90;;;;;;;20.10;100.00;97684.72;5100961;28;20039;-84
2023/07/16 02:58:58;;;;;;;1999.90;999.90;;;;;;;20.10;100.00;97695.84;5095617;28;20039;-85
2023/07/16 03:01:23;;;;;;;1999.90;999.90;;;;;;;20.13;100.00;97686.78;5097435;28;20035;-83
2023/07/16 03:03:49;;;;;;;1999.90;999.90;;;;;;;20.17;100.00;97693.19;5098509;28;20024;-81
2023/07/16 03:06:14;;;;;;;1999.90;999.90;;;;;;;20.26;100.00;97696.63;5094056;28;20016;-80
2023/07/16 03:08:39;;;;;;;1999.90;999.90;;;;;;;20.11;100.00;97685.53;5097594;28;20062;-80
2023/07/16 03:11:04;;;;;;;1999.90;999.90;;;;;;;20.20;100.00;97700.81;5097474;28;20110;-85
2023/07/16 03:13:30;;;;;;;1999.90;999.90;;;;;;;20.23;100.00;97708.44;5100114;28;20028;-81
2023/07/16 03:15:55;;;;;;;1999.90;999.90;;;;;;;20.14;100.00;97707.81;5100608;28;20027;-87
2023/07/16 03:18:20;;;;;;;1999.90;999.90;;;;;;;20.12;100.00;97710.16;5101637;28;20031;-87
2023/07/16 03:20:46;;;;;;;1999.90;999.90;;;;;;;20.06;100.00;97692.19;5100489;28;20020;-81
2023/07/16 03:23:11;;;;;;;1999.90;999.90;;;;;;;19.96;100.00;97686.38;5099851;28;20024;-82
2023/07/16 03:25:36;;;;;;;1999.90;999.90;;;;;;;20.12;100.00;97707.38;5101065;28;20481;-82
2023/07/16 03:28:02;;;;;;;1999.90;999.90;;;;;;;20.08;100.00;97692.59;5101500;28;20024;-82
2023/07/16 03:30:27;;;;;;;1999.90;999.90;;;;;;;20.13;100.00;97708.19;5100537;28;20036;-81
2023/07/16 03:32:52;;;;;;;1999.90;999.90;;;;;;;20.18;100.00;97705.94;5106057;28;20056;-86
2023/07/16 03:35:19;;;;;;;1999.90;999.90;;;;;;;20.25;100.00;97708.88;5101626;28;20028;-80
2023/07/16 03:37:46;;;;;;;1999.90;999.90;;;;;;;20.32;100.00;97713.00;5098996;28;20019;-83
2023/07/16 03:40:14;;;;;;;1999.90;999.90;;;;;;;20.52;100.00;97717.38;5099064;28;20031;-81
2023/07/16 03:42:39;;;;;;;1999.90;999.90;;;;;;;20.83;100.00;97717.22;5098425;28;20103;-82
2023/07/16 03:45:05;;;;;;;1999.90;999.90;;;;;;;20.97;100.00;97717.47;5097665;28;20044;-85
2023/07/16 03:47:30;;;;;;;1999.90;999.90;;;;;;;21.04;100.00;97719.59;5098897;28;20024;-84
2023/07/16 03:49:56;;;;;;;1999.90;999.90;;;;;;;21.25;100.00;97723.59;5098660;28;20384;-82
2023/07/16 03:52:21;;;;;;;1999.90;999.90;;;;;;;21.63;100.00;97725.44;5099119;28;20035;-80
2023/07/16 03:54:46;;;;;;;1999.90;999.90;;;;;;;21.94;100.00;97735.47;5098616;28;20104;-84
2023/07/16 03:57:12;;;;;;;1999.90;999.90;;;;;;;22.14;100.00;97731.41;5097421;28;20032;-82
2023/07/16 03:59:37;;;;;;;1999.90;999.90;;;;;;;22.31;100.00;97730.84;5097066;28;20018;-82
2023/07/16 04:02:03;;;;;;;1999.90;999.90;;;;;;;22.40;100.00;97736.13;5099409;28;20032;-82
2023/07/16 04:04:28;;;;;;;1999.90;999.90;;;;;;;22.17;100.00;97741.00;5101185;28;20040;-83
2023/07/16 04:06:53;;;;;;;1999.90;999.90;;;;;;;22.18;100.00;97740.59;5101997;28;20028;-83
2023/07/16 04:09:19;;;;;;;1999.90;999.90;;;;;;;22.26;100.00;97744.31;5102094;28;20457;-82
2023/07/16 04:11:44;;;;;;;1999.90;999.90;;;;;;;22.06;100.00;97751.97;5099733;28;20132;-87
2023/07/16 04:14:09;;;;;;;1999.90;999.90;;;;;;;21.75;100.00;97735.53;5103365;28;20028;-83
2023/07/16 04:16:35;;;;;;;1999.90;999.90;;;;;;;21.69;100.00;97746.22;5100152;28;20020;-84
2023/07/16 04:19:01;;;;;;;1999.90;999.90;;;;;;;21.64;100.00;97748.50;5098695;28;20087;-83
2023/07/16 04:21:26;;;;;;;1999.90;999.90;;;;;;;21.64;100.00;97746.53;5107638;28;20020;-82
2023/07/16 04:23:53;;;;;;;1999.90;999.90;;;;;;;21.97;100.00;97750.63;5095212;28;20035;-82
2023/07/16 04:26:18;;;;;;;1999.90;999.90;;;;;;;22.17;100.00;97764.09;5095618;28;20043;-82
2023/07/16 04:28:44;;;;;;;1999.90;999.90;;;;;;;22.86;100.00;97767.44;5095888;28;20102;-81
2023/07/16 04:31:09;;;;;;;1999.90;999.90;;;;;;;23.07;100.00;97773.25;5096441;28;20021;-82
2023/07/16 04:33:34;;;;;;;1999.90;999.90;;;;;;;23.04;100.00;97776.00;5097242;28;20028;-81
2023/07/16 04:36:00;;;;;;;1999.90;999.90;;;;;;;22.85;100.00;97782.56;5095440;28;20068;-80
2023/07/16 04:38:26;;;;;;;1999.90;999.90;;;;;;;23.02;100.00;97784.78;5098618;28;20028;-81
2023/07/16 04:40:51;;;;;;;1999.90;999.90;;;;;;;23.45;100.00;97784.06;5100421;28;20020;-81
2023/07/16 04:43:16;;;;;;;1999.90;999.90;;;;;;;23.77;100.00;97783.56;5099913;28;20036;-81
2023/07/16 04:45:46;;;;;;;1999.90;999.90;;;;;;;24.85;100.00;97793.09;5099969;28;20040;-79
2023/07/16 04:48:12;;;;;;;1999.90;999.90;;;;;;;24.45;100.00;97800.47;5098694;28;20020;-78
2023/07/16 04:50:38;;;;;;;1999.90;999.90;;;;;;;23.54;100.00;97792.13;5100324;28;20103;-84
2023/07/16 04:53:03;;;;;;;1999.90;999.90;;;;;;;23.06;100.00;97793.97;5104722;28;20036;-78
2023/07/16 04:55:29;;;;;;;1999.90;999.90;;;;;;;22.90;100.00;97787.78;5103774;28;20092;-83
2023/07/16 04:57:56;;;;;;;1999.90;999.90;;;;;;;23.13;100.00;97788.47;5103773;28;20024;-80
2023/07/16 05:00:22;;;;;;;1999.90;999.90;;;;;;;23.80;100.00;97799.56;5099770;28;20024;-82
2023/07/16 05:02:48;;;;;;;1999.90;999.90;;;;;;;24.47;100.00;97802.84;5075749;28;20496;-78
2023/07/16 05:05:13;;;;;;;1999.90;999.90;;;;;;;24.98;100.00;97814.75;5095372;28;20035;-82
2023/07/16 05:07:38;;;;;;;1999.90;999.90;;;;;;;24.61;100.00;97810.53;5095613;28;20028;-74
2023/07/16 05:10:04;;;;;;;1999.90;999.90;;;;;;;24.48;100.00;97808.06;5094815;28;20020;-76
2023/07/16 05:12:30;;;;;;;1999.90;999.90;;;;;;;24.48;100.00;97813.66;5095754;28;20043;-75
2023/07/16 05:14:55;;;;;;;1999.90;999.90;;;;;;;24.29;100.00;97811.16;5098603;28;20030;-80
2023/07/16 05:17:20;;;;;;;1999.90;999.90;;;;;;;24.10;100.00;97808.56;5103552;28;20116;-84
2023/07/16 05:19:46;;;;;;;1999.90;999.90;;;;;;;24.01;100.00;97810.91;5097649;28;20036;-81
2023/07/16 05:22:11;;;;;;;1999.90;999.90;;;;;;;23.98;100.00;97806.09;5093041;28;20447;-74
2023/07/16 05:24:36;;;;;;;1999.90;999.90;;;;;;;24.09;100.00;97812.53;5092301;28;20791;-74
2023/07/16 05:27:02;;;;;;;1999.90;999.90;;;;;;;24.13;100.00;97799.44;5090273;28;20028;-76
2023/07/16 05:29:27;;;;;;;1999.90;999.90;;;;;;;24.03;100.00;97808.50;5091297;28;20048;-75
2023/07/16 05:31:53;;;;;;;1999.90;999.90;;;;;;;24.01;100.00;97808.09;5090973;28;20036;-75
2023/07/16 05:34:19;;;;;;;1999.90;999.90;;;;;;;24.22;100.00;97807.47;5091751;28;20052;-76
2023/07/16 05:36:44;;;;;;;1999.90;999.90;;;;;;;24.31;100.00;97811.53;5093447;28;20101;-75
2023/07/16 05:39:12;;;;;;;1999.90;999.90;;;;;;;24.46;100.00;97815.25;5094647;28;20031;-78
2023/07/16 05:41:39;;;;;;;1999.90;999.90;;;;;;;24.37;100.00;97812.00;5103762;28;20027;-86
2023/07/16 05:44:04;;;;;;;1999.90;999.90;;;;;;;24.59;100.00;97821.34;5098126;28;20032;-80
2023/07/16 05:46:29;;;;;;;1999.90;999.90;;;;;;;24.99;100.00;97821.97;5091534;28;20077;-82
2023/07/16 05:48:55;;;;;;;1999.90;999.90;;;;;;;25.47;100.00;97821.72;5097889;28;20107;-83
2023/07/16 05:51:20;;;;;;;1999.90;999.90;;;;;;;25.56;100.00;97831.38;5096679;28;20019;-84
2023/07/16 05:53:45;;;;;;;1999.90;999.90;;;;;;;25.29;100.00;97827.28;5096826;28;20028;-78
2023/07/16 05:56:11;;;;;;;1999.90;999.90;;;;;;;25.28;100.00;97834.06;5097663;28;20101;-77
2023/07/16 05:58:36;;;;;;;1999.90;999.90;;;;;;;25.12;100.00;97830.81;5094858;28;20048;-79
2023/07/16 06:01:01;;;;;;;1999.90;999.90;;;;;;;25.19;100.00;97836.44;5092315;28;20055;-75
2023/07/16 06:03:26;;;;;;;1999.90;999.90;;;;;;;25.26;100.00;97842.06;5095207;28;20118;-79
2023/07/16 06:05:52;;;;;;;1999.90;999.90;;;;;;;25.44;100.00;97828.91;5102697;28;20024;-79
2023/07/16 06:08:17;;;;;;;1999.90;999.90;;;;;;;25.70;100.00;97843.81;5100910;28;20020;-80
2023/07/16 06:10:43;;;;;;;1999.90;999.90;;;;;;;25.65;100.00;97847.03;5098081;28;20024;-84
2023/07/16 06:13:08;;;;;;;1999.90;999.90;;;;;;;25.71;100.00;97846.22;5097807;28;20024;-78
2023/07/16 06:15:33;;;;;;;1999.90;999.90;;;;;;;25.66;100.00;97843.00;5097239;28;20544;-79
2023/07/16 06:17:58;;;;;;;1999.90;999.90;;;;;;;25.91;100.00;97846.63;5094933;28;20395;-78
2023/07/16 06:20:24;;;;;;;1999.90;999.90;;;;;;;26.12;100.00;97848.66;5090759;28;20805;-78
2023/07/16 06:22:49;;;;;;;1999.90;999.90;;;;;;;26.07;100.00;97841.44;5093709;28;20028;-79
2023/07/16 06:25:14;;;;;;;1999.90;999.90;;;;;;;26.33;100.00;97843.88;5093834;28;20035;-73
2023/07/16 06:27:40;;;;;;;1999.90;999.90;;;;;;;26.53;100.00;97839.44;5091644;28;20026;-75
2023/07/16 06:30:06;;;;;;;1999.90;999.90;;;;;;;26.65;100.00;97848.66;5091283;28;20093;-71
2023/07/16 06:32:31;;;;;;;1999.90;999.90;;;;;;;27.04;100.00;97849.38;5090775;28;20036;-70
2023/07/16 06:34:57;;;;;;;1999.90;999.90;;;;;;;27.37;100.00;97851.66;5090749;28;20032;-71
2023/07/16 06:37:23;;;;;;;1999.90;999.90;;;;;;;27.28;100.00;97856.91;5090679;28;20035;-70
2023/07/16 06:39:49;;;;;;;1999.90;999.90;;;;;;;27.17;100.00;97852.53;5090370;28;20028;-71
2023/07/16 06:42:14;;;;;;;1999.90;999.90;;;;;;;27.34;100.00;97849.66;5090346;28;20032;-72
2023/07/16 06:44:40;;;;;;;1999.90;999.90;;;;;;;27.32;100.00;97842.81;5090599;28;20016;-72
2023/07/16 06:47:05;;;;;;;1999.90;999.90;;;;;;;27.40;100.00;97848.03;5090471;28;20032;-71
2023/07/16 06:49:31;;;;;;;1999.90;999.90;;;;;;;27.77;100.00;97843.81;5090460;28;20484;-72
2023/07/16 06:51:56;;;;;;;1999.90;999.90;;;;;;;28.38;100.00;97845.78;5090437;28;20528;-71
2023/07/16 06:54:21;;;;;;;1999.90;999.90;;;;;;;28.77;100.00;97853.88;5090292;28;20024;-71
2023/07/16 06:56:47;;;;;;;1999.90;999.90;;;;;;;29.21;90.57;97858.63;5090773;28;20058;-70
2023/07/16 06:59:12;;;;;;;1999.90;999.90;;;;;;;29.45;82.24;97856.72;5089022;28;20032;-71
2023/07/16 07:01:37;;;;;;;1999.90;999.90;;;;;;;29.17;74.36;97864.28;5090025;28;20024;-71
2023/07/16 07:04:03;;;;;;;1999.90;999.90;;;;;;;29.10;79.89;97858.75;5090409;28;20031;-71
2023/07/16 07:06:28;;;;;;;1999.90;999.90;;;;;;;29.34;78.46;97847.63;5090396;28;20023;-71
2023/07/16 07:08:54;;;;;;;1999.90;999.90;;;;;;;29.02;78.73;97856.44;5090146;28;20020;-71
2023/07/16 07:11:19;;;;;;;1999.90;999.90;;;;;;;29.03;79.13;97855.22;5091614;28;20385;-70
2023/07/16 07:13:44;;;;;;;1999.90;999.90;;;;;;;29.09;79.90;97845.09;5094154;28;20031;-71
2023/07/16 07:16:10;;;;;;;1999.90;999.90;;;;;;;29.12;79.05;97852.69;5093845;28;20396;-71
2023/07/16 07:18:35;;;;;;;1999.90;999.90;;;;;;;28.99;80.12;97852.44;5093783;28;20073;-71
2023/07/16 07:21:00;;;;;;;1999.90;999.90;;;;;;;29.28;80.56;97849.31;5093824;28;20032;-71
2023/07/16 07:23:25;;;;;;;1999.90;999.90;;;;;;;29.15;77.69;97857.50;5093672;28;20196;-71
2023/07/16 07:25:51;;;;;;;1999.90;999.90;;;;;;;29.34;75.26;97858.91;5094052;28;20024;-72
2023/07/16 07:28:18;;;;;;;1999.90;999.90;;;;;;;29.21;76.55;97852.97;5093514;28;20067;-72
2023/07/16 07:30:44;;;;;;;1999.90;999.90;;;;;;;29.21;78.52;97856.59;5093860;28;20016;-72
2023/07/16 07:33:10;;;;;;;1999.90;999.90;;;;;;;29.62;78.76;97856.50;5093657;28;20072;-71
2023/07/16 07:35:35;;;;;;;1999.90;999.90;;;;;;;29.95;76.19;97859.69;5093585;28;20401;-71
2023/07/16 07:38:02;;;;;;;1999.90;999.90;;;;;;;30.32;72.54;97862.34;5093703;28;20055;-71
2023/07/16 07:40:27;;;;;;;1999.90;999.90;;;;;;;30.54;74.16;97863.56;5093501;28;20034;-70
2023/07/16 07:42:52;;;;;;;1999.90;999.90;;;;;;;30.61;71.33;97868.31;5093754;28;20063;-71
2023/07/16 07:45:18;;;;;;;1999.90;999.90;;;;;;;30.44;72.28;97870.22;5094000;28;20074;-71
2023/07/16 07:47:43;;;;;;;1999.90;999.90;;;;;;;30.37;74.07;97853.38;5097716;28;20077;-73
2023/07/16 07:50:09;;;;;;;1999.90;999.90;;;;;;;30.49;72.79;97863.28;5099672;28;20016;-72
2023/07/16 07:52:34;;;;;;;1999.90;999.90;;;;;;;30.60;74.06;97861.06;5097482;28;20123;-71
2023/07/16 07:54:59;;;;;;;1999.90;999.90;;;;;;;30.61;73.55;97857.81;5096169;28;20028;-72
2023/07/16 07:57:25;;;;;;;1999.90;999.90;;;;;;;30.61;72.54;97852.16;5093687;28;20404;-72
2023/07/16 07:59:55;;;;;;;1999.90;999.90;;;;;;;30.59;71.64;97860.28;5093308;28;20396;-71
2023/07/16 08:02:23;;;;;;;1999.90;999.90;;;;;;;30.39;72.61;97852.91;5093191;28;20110;-72
2023/07/16 08:04:48;;;;;;;1999.90;999.90;;;;;;;30.62;72.73;97850.94;5093235;28;20118;-72
2023/07/16 08:07:13;;;;;;;1999.90;999.90;;;;;;;30.95;71.67;97854.00;5093960;28;20150;-71
2023/07/16 08:09:38;;;;;;;1999.90;999.90;;;;;;;31.44;71.40;97858.66;5093347;28;20077;-72
2023/07/16 08:12:04;;;;;;;1999.90;999.90;;;;;;;31.60;70.59;97863.59;5092952;28;20391;-72
2023/07/16 08:14:29;;;;;;;1999.90;999.90;;;;;;;31.57;67.15;97868.09;5092867;28;20092;-74
2023/07/16 08:16:55;;;;;;;1999.90;999.90;;;;;;;31.17;67.93;97855.19;5092755;28;20032;-73
2023/07/16 08:19:22;;;;;;;1999.90;999.90;;;;;;;31.42;68.67;97858.25;5092740;28;20028;-72
2023/07/16 08:21:47;;;;;;;1999.90;999.90;;;;;;;31.63;67.22;97863.53;5091369;28;20020;-72
2023/07/16 08:24:12;;;;;;;1999.90;999.90;;;;;;;31.85;66.31;97866.66;5080729;28;20071;-79
2023/07/16 08:26:38;;;;;;;1999.90;999.90;;;;;;;31.87;66.31;97869.84;5090685;28;20681;-75
2023/07/16 08:29:03;;;;;;;1999.90;999.90;;;;;;;32.30;66.09;97866.81;5092797;28;20044;-78
2023/07/16 08:31:29;;;;;;;1999.90;999.90;;;;;;;32.39;63.14;97861.38;5092900;28;21042;-76
2023/07/16 08:33:54;;;;;;;1999.90;999.90;;;;;;;32.43;63.49;97869.75;5092402;28;20043;-76
2023/07/16 08:36:19;;;;;;;1999.90;999.90;;;;;;;32.43;65.56;97872.59;5092685;28;20505;-75
2023/07/16 08:38:45;;;;;;;1999.90;999.90;;;;;;;32.27;64.80;97877.00;5092418;28;20030;-76
2023/07/16 08:41:11;;;;;;;1999.90;999.90;;;;;;;32.57;64.05;97875.09;5093737;28;20559;-72
2023/07/16 08:43:39;;;;;;;1999.90;999.90;;;;;;;33.01;61.48;97873.53;5092381;28;20606;-73
2023/07/16 08:46:04;;;;;;;1999.90;999.90;;;;;;;32.99;62.28;97882.47;5092357;28;20027;-72
2023/07/16 08:48:29;;;;;;;1999.90;999.90;;;;;;;33.23;62.73;97881.03;5091968;28;20024;-74
2023/07/16 08:50:57;;;;;;;1999.90;999.90;;;;;;;33.18;61.92;97877.94;5092190;28;20028;-74
2023/07/16 08:53:22;;;;;;;1999.90;999.90;;;;;;;33.46;61.21;97879.19;5091804;28;20049;-72
2023/07/16 08:55:48;;;;;;;1999.90;999.90;;;;;;;32.79;62.55;97874.13;5092531;28;20108;-73
2023/07/16 08:58:14;;;;;;;1999.90;999.90;;;;;;;33.36;60.75;97881.84;5091942;28;20020;-72
2023/07/16 09:00:43;;;;;;;1999.90;999.90;;;;;;;33.96;60.66;97887.03;5091850;28;20024;-73
2023/07/16 09:03:12;;;;;;;1999.90;999.90;;;;;;;34.15;59.86;97889.66;5092087;28;20077;-72
2023/07/16 09:05:39;;;;;;;1999.90;999.90;;;;;;;34.37;58.65;97899.09;5092023;28;21057;-72
2023/07/16 09:08:04;;;;;;;1999.90;999.90;;;;;;;33.45;59.69;97884.06;5091734;28;20172;-73
2023/07/16 09:10:30;;;;;;;1999.90;999.90;;;;;;;32.57;62.33;97875.91;5091884;28;20024;-73
2023/07/16 09:12:58;;;;;;;1999.90;999.90;;;;;;;33.10;62.12;97885.06;5091634;28;20027;-73
2023/07/16 09:15:23;;;;;;;1999.90;999.90;;;;;;;32.77;61.91;97882.25;5091665;28;20111;-74
2023/07/16 09:17:49;;;;;;;1999.90;999.90;;;;;;;33.43;62.31;97880.84;5091952;28;20095;-73
2023/07/16 09:20:16;;;;;;;1999.90;999.90;;;;;;;33.47;61.51;97889.28;5091985;28;20020;-77
2023/07/16 09:22:41;;;;;;;1999.90;999.90;;;;;;;33.28;61.03;97883.31;5091678;28;20024;-74
2023/07/16 09:25:07;;;;;;;1999.90;999.90;;;;;;;32.88;62.75;97879.13;5090038;28;20032;-76
2023/07/16 09:27:32;;;;;;;1999.90;999.90;;;;;;;32.48;62.65;97886.22;5091391;28;20114;-75
2023/07/16 09:30:01;;;;;;;1999.90;999.90;;;;;;;32.66;63.79;97870.41;5091385;28;20047;-76
2023/07/16 09:32:40;;;;;;;1999.90;999.90;;;;;;;33.16;61.76;97881.22;5097811;28;20034;-78
2023/07/16 09:35:39;;;;;;;1999.90;999.90;;;;;;;33.49;58.67;97884.72;5111938;28;20012;-78
2023/07/16 09:38:05;;;;;;;1999.90;999.90;;;;;;;33.91;58.14;97892.00;5108310;28;20038;-77
2023/07/16 09:40:31;;;;;;;1999.90;999.90;;;;;;;33.34;59.64;97886.38;5103565;28;20051;-78
2023/07/16 09:42:57;;;;;;;1999.90;999.90;;;;;;;33.44;60.89;97885.28;5102276;28;20035;-79
2023/07/16 09:45:22;;;;;;;1999.90;999.90;;;;;;;33.82;59.75;97888.25;5085478;28;20043;-79
2023/07/16 09:47:48;;;;;;;1999.90;999.90;;;;;;;33.70;58.57;97883.34;5101003;28;20024;-82
2023/07/16 09:50:14;;;;;;;1999.90;999.90;;;;;;;33.73;56.57;97873.94;5103735;28;20026;-83
2023/07/16 09:52:42;;;;;;;1999.90;999.90;;;;;;;33.85;55.44;97890.97;5099451;28;20387;-79
2023/07/16 09:55:09;;;;;;;1999.90;999.90;;;;;;;34.12;57.43;97886.94;5098322;28;20031;-76
2023/07/16 09:57:36;;;;;;;1999.90;999.90;;;;;;;33.75;56.65;97874.25;5096781;28;20075;-75
2023/07/16 10:00:06;;;;;;;1999.90;999.90;;;;;;;34.03;56.67;97878.25;5096703;28;20120;-75
2023/07/16 10:02:35;;;;;;;1999.90;999.90;;;;;;;34.51;56.21;97895.00;5098315;28;20044;-77
2023/07/16 10:05:14;;;;;;;1999.90;999.90;;;;;;;34.51;54.98;97899.88;5102378;28;20032;-76
2023/07/16 10:07:40;;;;;;;1999.90;999.90;;;;;;;33.63;56.29;97889.22;5102912;28;20027;-78
2023/07/16 10:10:10;;;;;;;1999.90;999.90;;;;;;;33.75;57.09;97885.63;5091944;28;20473;-78
2023/07/16 10:12:36;;;;;;;1999.90;999.90;;;;;;;34.00;57.35;97887.69;5090921;28;20035;-77
2023/07/16 10:15:03;;;;;;;1999.90;999.90;;;;;;;34.50;55.77;97901.94;5092076;28;20035;-80
2023/07/16 10:17:31;;;;;;;1999.90;999.90;;;;;;;34.24;54.57;97906.06;5092278;28;20481;-79
2023/07/16 10:20:04;;;;;;;1999.90;999.90;;;;;;;34.29;54.60;97905.47;5090651;28;20398;-78
2023/07/16 10:22:35;;;;;;;1999.90;999.90;;;;;;;34.43;53.99;97907.84;5091489;28;20047;-76
2023/07/16 10:25:02;;;;;;;1999.90;999.90;;;;;;;34.58;54.22;97911.81;5092391;28;20020;-76
2023/07/16 10:27:32;;;;;;;1999.90;999.90;;;;;;;35.03;53.04;97907.88;5091837;28;20032;-77
2023/07/16 10:29:59;;;;;;;1999.90;999.90;;;;;;;35.17;52.72;97908.22;5091728;28;20071;-78
2023/07/16 10:32:29;;;;;;;1999.90;999.90;;;;;;;34.80;53.29;97906.25;5093509;28;20021;-73
2023/07/16 10:34:56;;;;;;;1999.90;999.90;;;;;;;34.67;52.15;97908.31;5098669;28;20046;-82
2023/07/16 10:37:21;;;;;;;1999.90;999.90;;;;;;;34.29;53.94;97902.63;5109592;28;20028;-82
2023/07/16 10:39:48;;;;;;;1999.90;999.90;;;;;;;34.56;54.74;97905.78;5109839;28;20105;-81
2023/07/16 10:42:16;;;;;;;1999.90;999.90;;;;;;;34.62;53.33;97889.75;5110808;28;20027;-81
2023/07/16 10:44:42;;;;;;;1999.90;999.90;;;;;;;34.87;53.28;97895.41;5112255;28;20030;-84